< < Back
Terminal Aerodrome Forecast


Current Version              Previous Versions:   1  2  3  4  5  6  7  8  9  

Terminal Aerodrome Forecast

840
FTUS42 KMLB 231723
TAFDAB
TAF
KDAB 231723Z 2318/2418 07009KT P6SM VCSH SCT045
     FM231900 09009KT P6SM FEW040 SCT250
     FM240100 VRB03KT P6SM SKC=



Latest METAR

229
SAUS80 KWBC 241400
MTRDAB
METAR KDAB 241353Z 00000KT 10SM FEW020 FEW035 FEW250 30/23 A3006 RMK AO2
SLP180 CB DSNT SW T03000233 $


USA.gov is the U.S. government's official web portal to all federal, state and local government web resources and services.